Time;durP1;ratioP1;P1;durP2;ratioP2;P2;SDS_P1;SDS_P2;PMS_P1;PMS_P2;Temp;Humidity;BMP_temperature;BMP_pressure;BME280_temperature;BME280_humidity;BME280_pressure;Samples;Min_cycle;Max_cycle;Signal;HPM_P1;HPM_P2
2022/03/06 00:02:11;;;;;;;20.98;13.10;;;;;;;;;;5081376;28;20075;-69
2022/03/06 00:04:37;;;;;;;19.42;12.60;;;;;;;;;;5077215;28;20036;-69
2022/03/06 00:07:04;;;;;;;21.40;13.05;;;;;;;;;;5093788;28;20190;-69
2022/03/06 00:09:30;;;;;;;18.10;12.98;;;;;;;;;;5092999;28;20080;-69
2022/03/06 00:11:57;;;;;;;20.35;12.07;;;;;;;;;;5093482;28;20473;-69
2022/03/06 00:14:23;;;;;;;19.05;13.35;;;;;;;;;;5092302;28;20075;-69
2022/03/06 00:16:52;;;;;;;21.10;13.15;;;;;;;;;;5083296;28;20115;-69
2022/03/06 00:19:18;;;;;;;21.52;12.32;;;;;;;;;;5085539;28;20040;-69
2022/03/06 00:21:44;;;;;;;16.77;11.98;;;;;;;;;;5085114;28;20105;-69
2022/03/06 00:24:10;;;;;;;20.50;12.43;;;;;;;;;;5093418;28;20064;-69
2022/03/06 00:26:36;;;;;;;20.55;11.93;;;;;;;;;;5083464;28;20512;-69
2022/03/06 00:29:03;;;;;;;19.48;13.07;;;;;;;;;;5080209;28;20056;-69
2022/03/06 00:31:29;;;;;;;18.88;12.32;;;;;;;;;;5094187;28;20032;-69
2022/03/06 00:33:55;;;;;;;18.52;12.10;;;;;;;;;;5094259;28;20032;-69
2022/03/06 00:36:22;;;;;;;18.70;12.68;;;;;;;;;;5092085;28;20032;-69
2022/03/06 00:38:48;;;;;;;20.45;12.32;;;;;;;;;;5076172;28;20040;-69
2022/03/06 00:41:14;;;;;;;19.88;12.18;;;;;;;;;;5094308;28;20057;-69
2022/03/06 00:43:40;;;;;;;20.70;11.85;;;;;;;;;;5092129;28;20403;-69
2022/03/06 00:46:06;;;;;;;19.05;12.68;;;;;;;;;;5093929;28;20043;-69
2022/03/06 00:48:33;;;;;;;16.30;12.07;;;;;;;;;;5092641;28;20425;-69
2022/03/06 00:50:59;;;;;;;16.60;11.38;;;;;;;;;;5093115;28;20065;-69
2022/03/06 00:53:25;;;;;;;17.67;11.48;;;;;;;;;;5092395;28;20585;-69
2022/03/06 00:55:51;;;;;;;17.95;11.70;;;;;;;;;;5094073;28;20039;-69
2022/03/06 00:58:17;;;;;;;22.50;12.63;;;;;;;;;;5093288;28;20390;-69
2022/03/06 01:00:46;;;;;;;22.63;12.15;;;;;;;;;;5093870;28;20093;-69
2022/03/06 01:03:14;;;;;;;19.70;12.48;;;;;;;;;;5075451;28;20036;-69
2022/03/06 01:05:41;;;;;;;18.42;12.23;;;;;;;;;;5092585;28;20048;-69
2022/03/06 01:08:07;;;;;;;16.95;11.27;;;;;;;;;;5091263;28;20153;-69
2022/03/06 01:10:34;;;;;;;16.17;12.10;;;;;;;;;;5092082;28;20089;-69
2022/03/06 01:13:00;;;;;;;16.83;11.38;;;;;;;;;;5091754;28;20087;-69
2022/03/06 01:15:26;;;;;;;18.25;11.77;;;;;;;;;;5092295;28;20455;-69
2022/03/06 01:17:52;;;;;;;18.00;12.15;;;;;;;;;;5091926;28;20050;-69
2022/03/06 01:20:19;;;;;;;16.60;11.45;;;;;;;;;;5091578;28;20092;-69
2022/03/06 01:22:46;;;;;;;14.98;11.23;;;;;;;;;;5091925;28;20054;-69
2022/03/06 01:25:12;;;;;;;19.60;11.73;;;;;;;;;;5091647;28;20131;-69
2022/03/06 01:27:38;;;;;;;19.10;11.43;;;;;;;;;;5092811;28;20085;-69
2022/03/06 01:30:05;;;;;;;17.10;11.25;;;;;;;;;;5091363;28;20058;-69
2022/03/06 01:32:32;;;;;;;18.58;10.95;;;;;;;;;;5074714;28;20048;-69
2022/03/06 01:34:59;;;;;;;17.60;11.60;;;;;;;;;;5091346;28;20083;-69
2022/03/06 01:37:25;;;;;;;15.77;10.40;;;;;;;;;;5092939;28;20370;-69
2022/03/06 01:39:51;;;;;;;16.92;11.00;;;;;;;;;;5091755;28;20048;-70
2022/03/06 01:42:17;;;;;;;18.25;11.95;;;;;;;;;;5090708;28;20079;-69
2022/03/06 01:44:50;;;;;;;16.35;11.48;;;;;;;;;;5091344;28;20036;-69
2022/03/06 01:47:16;;;;;;;;;;;;;;;;;;5092223;28;20505;-69
2022/03/06 01:49:42;;;;;;;16.17;11.23;;;;;;;;;;5090550;28;19916;-69
2022/03/06 01:52:08;;;;;;;16.77;10.70;;;;;;;;;;5091631;28;20401;-69
2022/03/06 01:54:34;;;;;;;19.00;10.93;;;;;;;;;;5091525;28;20104;-69
2022/03/06 01:57:00;;;;;;;21.45;12.18;;;;;;;;;;5092157;28;20044;-69
2022/03/06 01:59:26;;;;;;;16.95;10.73;;;;;;;;;;5092305;28;20042;-69
2022/03/06 02:01:52;;;;;;;18.35;11.57;;;;;;;;;;5091003;28;20051;-69
2022/03/06 02:04:18;;;;;;;19.05;10.80;;;;;;;;;;5091194;28;20431;-69
2022/03/06 02:06:45;;;;;;;20.73;11.45;;;;;;;;;;5091977;28;20484;-69
2022/03/06 02:09:11;;;;;;;15.70;11.38;;;;;;;;;;5092286;28;20056;-69
2022/03/06 02:11:37;;;;;;;19.67;11.02;;;;;;;;;;5092400;28;20032;-69
2022/03/06 02:14:03;;;;;;;16.20;11.30;;;;;;;;;;5090314;28;20090;-69
2022/03/06 02:16:31;;;;;;;19.33;11.20;;;;;;;;;;5092241;28;20072;-69
2022/03/06 02:18:57;;;;;;;17.63;10.90;;;;;;;;;;5090489;28;20043;-69
2022/03/06 02:21:23;;;;;;;17.50;10.60;;;;;;;;;;5090079;28;20047;-69
2022/03/06 02:23:49;;;;;;;17.90;10.38;;;;;;;;;;5090831;28;20067;-69
2022/03/06 02:26:15;;;;;;;17.40;10.80;;;;;;;;;;5090558;28;20044;-69
2022/03/06 02:28:43;;;;;;;16.63;10.13;;;;;;;;;;5091068;28;20085;-69
2022/03/06 02:31:09;;;;;;;17.65;11.07;;;;;;;;;;5090856;28;20134;-69
2022/03/06 02:33:37;;;;;;;15.30;10.02;;;;;;;;;;5090876;28;20133;-69
2022/03/06 02:36:03;;;;;;;17.05;10.35;;;;;;;;;;5089964;28;20043;-69
2022/03/06 02:38:29;;;;;;;21.30;11.07;;;;;;;;;;5091814;28;20460;-69
2022/03/06 02:40:55;;;;;;;19.45;10.98;;;;;;;;;;5090554;28;20036;-69
2022/03/06 02:43:21;;;;;;;17.92;10.85;;;;;;;;;;5091321;28;20052;-69
2022/03/06 02:45:47;;;;;;;17.42;9.98;;;;;;;;;;5090098;28;20042;-69
2022/03/06 02:48:13;;;;;;;15.63;10.30;;;;;;;;;;5090360;28;20093;-69
2022/03/06 02:50:39;;;;;;;16.40;10.50;;;;;;;;;;5089542;28;20033;-69
2022/03/06 02:53:07;;;;;;;16.40;10.35;;;;;;;;;;5091471;28;20067;-69
2022/03/06 02:55:33;;;;;;;14.90;9.90;;;;;;;;;;5090285;28;20059;-69
2022/03/06 02:57:59;;;;;;;13.90;9.70;;;;;;;;;;5091262;28;20127;-69
2022/03/06 03:00:26;;;;;;;17.50;9.95;;;;;;;;;;5090231;28;20131;-69
2022/03/06 03:02:52;;;;;;;14.95;9.80;;;;;;;;;;5090154;28;20044;-69
2022/03/06 03:05:18;;;;;;;19.35;10.10;;;;;;;;;;5089302;28;20036;-69
2022/03/06 03:07:48;;;;;;;12.88;9.23;;;;;;;;;;5090472;28;20490;-69
2022/03/06 03:10:15;;;;;;;15.15;9.13;;;;;;;;;;5091517;28;20425;-69
2022/03/06 03:12:41;;;;;;;15.93;9.25;;;;;;;;;;5089679;28;20055;-69
2022/03/06 03:15:08;;;;;;;12.75;9.07;;;;;;;;;;5079295;28;20147;-69
2022/03/06 03:17:34;;;;;;;13.73;9.35;;;;;;;;;;5076326;28;20437;-69
2022/03/06 03:20:00;;;;;;;11.70;8.43;;;;;;;;;;5091092;28;20097;-69
2022/03/06 03:22:26;;;;;;;13.90;8.82;;;;;;;;;;5089918;28;20040;-69
2022/03/06 03:24:52;;;;;;;13.85;8.63;;;;;;;;;;5091034;28;20430;-69
2022/03/06 03:27:18;;;;;;;16.77;9.68;;;;;;;;;;5090705;28;20460;-69
2022/03/06 03:29:44;;;;;;;13.57;8.73;;;;;;;;;;5089769;28;20447;-69
2022/03/06 03:32:11;;;;;;;14.13;9.02;;;;;;;;;;5077550;28;20075;-69
2022/03/06 03:34:37;;;;;;;11.73;7.68;;;;;;;;;;5093209;28;20173;-69
2022/03/06 03:37:03;;;;;;;15.00;9.07;;;;;;;;;;5094006;28;20127;-69
2022/03/06 03:39:30;;;;;;;15.50;9.25;;;;;;;;;;5094099;28;20048;-69
2022/03/06 03:41:57;;;;;;;14.05;8.18;;;;;;;;;;5093291;28;20520;-70
2022/03/06 03:44:23;;;;;;;14.07;8.68;;;;;;;;;;5093856;28;20043;-69
2022/03/06 03:46:49;;;;;;;14.35;8.70;;;;;;;;;;5093278;28;20123;-69
2022/03/06 03:49:15;;;;;;;14.27;8.40;;;;;;;;;;5092834;28;20692;-69
2022/03/06 03:51:44;;;;;;;14.30;8.27;;;;;;;;;;5093770;28;20073;-69
2022/03/06 03:54:10;;;;;;;12.43;8.95;;;;;;;;;;5093483;28;20043;-69
2022/03/06 03:56:36;;;;;;;13.07;8.60;;;;;;;;;;5093165;28;20055;-70
2022/03/06 03:59:02;;;;;;;13.45;8.50;;;;;;;;;;5095131;28;20114;-70
2022/03/06 04:01:28;;;;;;;16.33;9.30;;;;;;;;;;5094726;28;20071;-70
2022/03/06 04:03:54;;;;;;;12.77;8.77;;;;;;;;;;5094371;28;20040;-69
2022/03/06 04:06:20;;;;;;;14.90;8.82;;;;;;;;;;5093437;28;20488;-69
2022/03/06 04:08:46;;;;;;;13.80;8.65;;;;;;;;;;5094912;28;20075;-69
2022/03/06 04:11:12;;;;;;;14.93;7.85;;;;;;;;;;5092676;28;20059;-69
2022/03/06 04:13:38;;;;;;;15.50;8.68;;;;;;;;;;5094791;28;20040;-69
2022/03/06 04:16:05;;;;;;;13.35;8.80;;;;;;;;;;5093059;28;20146;-69
2022/03/06 04:18:31;;;;;;;11.57;8.70;;;;;;;;;;5092466;28;20043;-69
2022/03/06 04:20:57;;;;;;;12.18;7.70;;;;;;;;;;5093342;28;20131;-69
2022/03/06 04:23:23;;;;;;;12.27;8.32;;;;;;;;;;5094211;28;20052;-69
2022/03/06 04:25:49;;;;;;;12.77;8.75;;;;;;;;;;5092371;28;20040;-69
2022/03/06 04:28:15;;;;;;;12.38;8.38;;;;;;;;;;5092818;28;20028;-69
2022/03/06 04:30:41;;;;;;;13.98;8.55;;;;;;;;;;5092641;28;20047;-69
2022/03/06 04:33:07;;;;;;;16.13;8.48;;;;;;;;;;5092119;28;20414;-70
2022/03/06 04:35:34;;;;;;;14.13;8.38;;;;;;;;;;5094501;28;20046;-69
2022/03/06 04:38:00;;;;;;;14.13;8.63;;;;;;;;;;5094346;28;20806;-69
2022/03/06 04:40:26;;;;;;;14.65;8.25;;;;;;;;;;5092352;28;20060;-69
2022/03/06 04:42:52;;;;;;;14.90;8.18;;;;;;;;;;5092372;28;20123;-69
2022/03/06 04:45:18;;;;;;;14.93;8.30;;;;;;;;;;5092209;28;20043;-69
2022/03/06 04:47:44;;;;;;;10.68;7.75;;;;;;;;;;5093560;28;20507;-69
2022/03/06 04:50:10;;;;;;;15.32;8.10;;;;;;;;;;5092431;28;20139;-69
2022/03/06 04:52:36;;;;;;;14.25;7.47;;;;;;;;;;5092626;28;20040;-69
2022/03/06 04:55:03;;;;;;;12.82;6.82;;;;;;;;;;5091966;28;20051;-69
2022/03/06 04:57:29;;;;;;;14.32;7.55;;;;;;;;;;5093721;28;20051;-69
2022/03/06 04:59:55;;;;;;;10.85;6.68;;;;;;;;;;5093846;28;20115;-70
2022/03/06 05:02:21;;;;;;;14.55;6.97;;;;;;;;;;5091854;28;20485;-70
2022/03/06 05:04:47;;;;;;;12.40;7.45;;;;;;;;;;5075624;28;20036;-70
2022/03/06 05:07:13;;;;;;;11.77;7.68;;;;;;;;;;5092078;28;20051;-70
2022/03/06 05:09:39;;;;;;;12.50;7.05;;;;;;;;;;5093053;28;20036;-70
2022/03/06 05:12:06;;;;;;;11.77;5.97;;;;;;;;;;5092220;28;20086;-69
2022/03/06 05:14:32;;;;;;;9.98;6.03;;;;;;;;;;5092218;28;20083;-69
2022/03/06 05:16:58;;;;;;;10.23;6.60;;;;;;;;;;5093021;28;20048;-69
2022/03/06 05:19:24;;;;;;;10.32;6.22;;;;;;;;;;5092182;28;20478;-69
2022/03/06 05:21:50;;;;;;;9.90;6.43;;;;;;;;;;5093484;28;20155;-69
2022/03/06 05:24:16;;;;;;;8.20;5.38;;;;;;;;;;5091574;28;20044;-69
2022/03/06 05:26:42;;;;;;;12.27;6.28;;;;;;;;;;5091374;28;20165;-69
2022/03/06 05:29:08;;;;;;;12.77;6.00;;;;;;;;;;5093279;28;20502;-69
2022/03/06 05:31:34;;;;;;;10.63;6.18;;;;;;;;;;5091483;28;20540;-69
2022/03/06 05:34:00;;;;;;;9.02;5.75;;;;;;;;;;5091518;28;20055;-69
2022/03/06 05:36:26;;;;;;;10.27;5.75;;;;;;;;;;5091553;28;20398;-69
2022/03/06 05:38:52;;;;;;;10.77;5.70;;;;;;;;;;5087451;28;20036;-69
2022/03/06 05:41:18;;;;;;;8.88;5.55;;;;;;;;;;5070952;28;20044;-69
2022/03/06 05:43:44;;;;;;;10.70;5.50;;;;;;;;;;5091560;28;20051;-69
2022/03/06 05:46:10;;;;;;;8.90;5.30;;;;;;;;;;5092563;28;20040;-69
2022/03/06 05:48:36;;;;;;;8.57;5.47;;;;;;;;;;5092304;28;20036;-69
2022/03/06 05:51:02;;;;;;;10.63;5.50;;;;;;;;;;5091355;28;20407;-69
2022/03/06 05:53:29;;;;;;;7.20;4.78;;;;;;;;;;5090586;28;20127;-69
2022/03/06 05:55:55;;;;;;;11.27;5.72;;;;;;;;;;5091801;28;20075;-69
2022/03/06 05:58:21;;;;;;;8.45;4.93;;;;;;;;;;5091161;28;20094;-69
2022/03/06 06:00:47;;;;;;;8.50;4.95;;;;;;;;;;5091150;28;20032;-69
2022/03/06 06:03:13;;;;;;;7.63;4.82;;;;;;;;;;5090235;28;20044;-69
2022/03/06 06:05:39;;;;;;;8.48;4.95;;;;;;;;;;5091082;28;20115;-69
2022/03/06 06:08:05;;;;;;;11.40;4.93;;;;;;;;;;5091365;28;20106;-69
2022/03/06 06:10:31;;;;;;;10.93;5.75;;;;;;;;;;5091529;28;20063;-69
2022/03/06 06:12:57;;;;;;;13.00;5.35;;;;;;;;;;5091288;28;20073;-69
2022/03/06 06:15:23;;;;;;;8.73;5.28;;;;;;;;;;5092114;28;20040;-69
2022/03/06 06:17:49;;;;;;;9.60;4.68;;;;;;;;;;5090050;28;20044;-69
2022/03/06 06:20:15;;;;;;;11.70;5.00;;;;;;;;;;5090721;28;20055;-69
2022/03/06 06:22:41;;;;;;;9.10;4.75;;;;;;;;;;5090502;28;20047;-69
2022/03/06 06:25:08;;;;;;;8.20;4.90;;;;;;;;;;5090292;28;20036;-69
2022/03/06 06:27:34;;;;;;;13.52;5.45;;;;;;;;;;5090469;28;20054;-69
2022/03/06 06:30:00;;;;;;;10.82;4.45;;;;;;;;;;5091857;28;20044;-69
2022/03/06 06:32:26;;;;;;;8.10;4.30;;;;;;;;;;5090345;28;20456;-69
2022/03/06 06:34:52;;;;;;;8.77;4.97;;;;;;;;;;5090528;28;20050;-69
2022/03/06 06:37:18;;;;;;;9.73;4.63;;;;;;;;;;5090642;28;20050;-69
2022/03/06 06:39:44;;;;;;;9.00;5.18;;;;;;;;;;5089695;28;20043;-69
2022/03/06 06:42:10;;;;;;;11.07;5.28;;;;;;;;;;5090455;28;20040;-69
2022/03/06 06:44:36;;;;;;;12.40;5.07;;;;;;;;;;5090494;28;20497;-70
2022/03/06 06:47:03;;;;;;;11.10;4.93;;;;;;;;;;5089504;28;20206;-70
2022/03/06 06:49:29;;;;;;;6.95;4.85;;;;;;;;;;5090480;28;20055;-70
2022/03/06 06:51:55;;;;;;;8.93;4.88;;;;;;;;;;5090360;28;20032;-70
2022/03/06 06:54:21;;;;;;;9.25;5.10;;;;;;;;;;5089698;28;20052;-70
2022/03/06 06:56:47;;;;;;;8.13;4.50;;;;;;;;;;5090323;28;20131;-69
2022/03/06 06:59:14;;;;;;;6.40;4.18;;;;;;;;;;5091336;28;20062;-69
2022/03/06 07:01:40;;;;;;;6.10;4.13;;;;;;;;;;5089747;28;20542;-69
2022/03/06 07:04:06;;;;;;;7.75;4.57;;;;;;;;;;5090217;28;20394;-69
2022/03/06 07:06:32;;;;;;;6.05;4.20;;;;;;;;;;5090994;28;20051;-69
2022/03/06 07:08:58;;;;;;;8.25;4.50;;;;;;;;;;5091047;28;20067;-70
2022/03/06 07:11:24;;;;;;;9.18;4.25;;;;;;;;;;5090016;28;20075;-70
2022/03/06 07:13:50;;;;;;;8.20;4.40;;;;;;;;;;5089814;28;20051;-69
2022/03/06 07:16:16;;;;;;;9.07;4.10;;;;;;;;;;5072567;28;20044;-70
2022/03/06 07:18:42;;;;;;;6.40;3.80;;;;;;;;;;5091331;28;20260;-69
2022/03/06 07:21:08;;;;;;;9.65;4.28;;;;;;;;;;5090115;28;20043;-69
2022/03/06 07:23:34;;;;;;;8.80;4.38;;;;;;;;;;5089188;28;20077;-69
2022/03/06 07:26:00;;;;;;;6.97;4.30;;;;;;;;;;5091005;28;20121;-69
2022/03/06 07:28:28;;;;;;;8.13;3.83;;;;;;;;;;5091196;28;20127;-69
2022/03/06 07:30:54;;;;;;;5.88;3.92;;;;;;;;;;5089348;28;20032;-69
2022/03/06 07:33:20;;;;;;;13.13;4.15;;;;;;;;;;5091426;28;20052;-69
2022/03/06 07:35:46;;;;;;;6.18;4.10;;;;;;;;;;5089988;28;20055;-69
2022/03/06 07:38:13;;;;;;;8.70;4.32;;;;;;;;;;5089122;28;20105;-69
2022/03/06 07:40:39;;;;;;;7.90;4.28;;;;;;;;;;5089884;28;20048;-69
2022/03/06 07:43:05;;;;;;;9.15;4.30;;;;;;;;;;5089626;28;20575;-69
2022/03/06 07:45:31;;;;;;;5.57;3.70;;;;;;;;;;5090216;28;20086;-69
2022/03/06 07:47:57;;;;;;;6.85;4.07;;;;;;;;;;5089657;28;20040;-69
2022/03/06 07:50:23;;;;;;;9.50;4.07;;;;;;;;;;5091106;28;20618;-69
2022/03/06 07:52:49;;;;;;;7.50;4.05;;;;;;;;;;5089574;28;20490;-69
2022/03/06 07:55:15;;;;;;;5.72;3.58;;;;;;;;;;5089839;28;20051;-69
2022/03/06 07:57:41;;;;;;;10.00;3.75;;;;;;;;;;5072822;28;20444;-69
2022/03/06 08:00:10;;;;;;;6.68;3.50;;;;;;;;;;5088934;28;20404;-69
2022/03/06 08:02:36;;;;;;;5.75;3.53;;;;;;;;;;5089841;28;20044;-69
2022/03/06 08:05:02;;;;;;;5.05;3.35;;;;;;;;;;5091213;28;20496;-69
2022/03/06 08:07:29;;;;;;;4.35;3.10;;;;;;;;;;5089345;28;20047;-69
2022/03/06 08:09:55;;;;;;;8.65;2.90;;;;;;;;;;5089623;28;20044;-69
2022/03/06 08:12:25;;;;;;;6.32;3.20;;;;;;;;;;5089955;28;20422;-69
2022/03/06 08:14:51;;;;;;;5.93;3.60;;;;;;;;;;5088744;28;20090;-69
2022/03/06 08:17:18;;;;;;;6.10;2.80;;;;;;;;;;5093664;28;20432;-69
2022/03/06 08:19:44;;;;;;;4.20;2.90;;;;;;;;;;5093030;28;20059;-69
2022/03/06 08:22:10;;;;;;;6.28;3.30;;;;;;;;;;5093880;28;20055;-69
2022/03/06 08:24:36;;;;;;;5.47;3.22;;;;;;;;;;5093312;28;20036;-69
2022/03/06 08:27:02;;;;;;;3.97;2.90;;;;;;;;;;5092521;28;20072;-69
2022/03/06 08:29:28;;;;;;;6.15;2.83;;;;;;;;;;5092203;28;20101;-69
2022/03/06 08:31:54;;;;;;;6.95;3.25;;;;;;;;;;5092787;28;20649;-69
2022/03/06 08:34:20;;;;;;;4.00;3.13;;;;;;;;;;5094094;28;20040;-69
2022/03/06 08:36:47;;;;;;;4.88;2.92;;;;;;;;;;5092602;28;20047;-69
2022/03/06 08:39:13;;;;;;;5.18;2.58;;;;;;;;;;5092959;28;20513;-69
2022/03/06 08:41:40;;;;;;;4.28;2.80;;;;;;;;;;5092859;28;20482;-69
2022/03/06 08:44:06;;;;;;;6.97;2.47;;;;;;;;;;5093332;28;20079;-69
2022/03/06 08:46:32;;;;;;;4.70;2.58;;;;;;;;;;5092390;28;20074;-69
2022/03/06 08:48:58;;;;;;;4.93;3.28;;;;;;;;;;5092528;28;20048;-69
2022/03/06 08:51:24;;;;;;;4.25;2.60;;;;;;;;;;5092523;28;20478;-69
2022/03/06 08:53:50;;;;;;;3.92;2.55;;;;;;;;;;5092347;28;20051;-69
2022/03/06 08:56:16;;;;;;;3.33;2.17;;;;;;;;;;5093696;28;20046;-69
2022/03/06 08:58:42;;;;;;;3.88;2.42;;;;;;;;;;5092434;28;20040;-69
2022/03/06 09:01:08;;;;;;;3.65;2.80;;;;;;;;;;5091897;28;20048;-69
2022/03/06 09:03:35;;;;;;;5.40;2.60;;;;;;;;;;5092069;28;20040;-69
2022/03/06 09:06:01;;;;;;;5.70;2.65;;;;;;;;;;5093733;28;20123;-69
2022/03/06 09:08:27;;;;;;;3.00;2.70;;;;;;;;;;5092799;28;20162;-69
2022/03/06 09:10:53;;;;;;;3.42;2.60;;;;;;;;;;5093309;28;20530;-69
2022/03/06 09:13:19;;;;;;;6.07;2.85;;;;;;;;;;5092700;28;20499;-69
2022/03/06 09:15:45;;;;;;;3.83;2.55;;;;;;;;;;5091615;28;20443;-69
2022/03/06 09:18:11;;;;;;;3.65;2.75;;;;;;;;;;5093214;28;20562;-69
2022/03/06 09:20:37;;;;;;;4.18;3.00;;;;;;;;;;5093428;28;20032;-69
2022/03/06 09:23:05;;;;;;;3.20;2.58;;;;;;;;;;5092600;28;20556;-69
2022/03/06 09:25:33;;;;;;;3.88;2.70;;;;;;;;;;5093291;28;20123;-69
2022/03/06 09:28:00;;;;;;;3.67;2.47;;;;;;;;;;5092139;28;20067;-70
2022/03/06 09:30:26;;;;;;;7.65;2.72;;;;;;;;;;5091245;28;20059;-69
2022/03/06 09:32:52;;;;;;;3.15;2.50;;;;;;;;;;5091687;28;20040;-69
2022/03/06 09:35:18;;;;;;;4.78;2.60;;;;;;;;;;5092556;28;20121;-69
2022/03/06 09:37:44;;;;;;;6.30;3.03;;;;;;;;;;5091189;28;20028;-69
2022/03/06 09:40:10;;;;;;;5.38;2.38;;;;;;;;;;5058314;28;20043;-69
2022/03/06 09:42:36;;;;;;;2.92;2.60;;;;;;;;;;5091306;28;20445;-69
2022/03/06 09:45:08;;;;;;;4.07;2.33;;;;;;;;;;5090842;28;20043;-69
2022/03/06 09:47:35;;;;;;;2.85;2.47;;;;;;;;;;5091162;28;20383;-69
2022/03/06 09:50:01;;;;;;;4.97;2.53;;;;;;;;;;5092745;28;20040;-69
2022/03/06 09:52:28;;;;;;;4.93;2.45;;;;;;;;;;5092072;28;20047;-69
2022/03/06 09:54:54;;;;;;;3.33;2.65;;;;;;;;;;5091663;28;20069;-69
2022/03/06 09:57:20;;;;;;;4.63;2.10;;;;;;;;;;5091622;28;21003;-69
2022/03/06 09:59:46;;;;;;;3.95;2.28;;;;;;;;;;5092191;28;20044;-69
2022/03/06 10:02:13;;;;;;;5.70;2.58;;;;;;;;;;5092899;28;20040;-69
2022/03/06 10:04:39;;;;;;;3.40;2.38;;;;;;;;;;5091239;28;20051;-69
2022/03/06 10:07:06;;;;;;;4.63;2.50;;;;;;;;;;5073480;28;20124;-69
2022/03/06 10:09:34;;;;;;;5.00;2.38;;;;;;;;;;5091043;28;20032;-69
2022/03/06 10:12:00;;;;;;;3.78;1.83;;;;;;;;;;5090830;28;20463;-69
2022/03/06 10:14:35;;;;;;;3.25;2.38;;;;;;;;;;5090274;28;20067;-69
2022/03/06 10:17:28;;;;;;;5.47;2.78;;;;;;;;;;5083390;28;20040;-69
2022/03/06 10:19:54;;;;;;;;;;;;;;;;;;5082600;28;20048;-69
2022/03/06 10:22:21;;;;;;;3.85;2.58;;;;;;;;;;5091305;28;19993;-69
2022/03/06 10:24:51;;;;;;;2.92;2.33;;;;;;;;;;5092430;28;20040;-69
2022/03/06 10:27:37;;;;;;;3.65;2.60;;;;;;;;;;5091895;28;20119;-69
2022/03/06 10:30:21;;;;;;;5.47;2.97;;;;;;;;;;5090014;28;20059;-70
2022/03/06 10:32:47;;;;;;;5.07;2.63;;;;;;;;;;5071952;28;20055;-70
2022/03/06 10:35:13;;;;;;;5.25;2.63;;;;;;;;;;5077120;28;20610;-70
2022/03/06 10:37:40;;;;;;;4.05;2.70;;;;;;;;;;5091247;28;20903;-70
2022/03/06 10:40:07;;;;;;;5.07;2.45;;;;;;;;;;5090536;28;20044;-70
2022/03/06 10:42:34;;;;;;;3.85;2.30;;;;;;;;;;5091318;28;20097;-70
2022/03/06 10:45:00;;;;;;;4.35;2.30;;;;;;;;;;5090767;28;20032;-70
2022/03/06 10:47:26;;;;;;;2.83;2.22;;;;;;;;;;5090234;28;20040;-70
2022/03/06 10:49:59;;;;;;;3.13;2.30;;;;;;;;;;5091513;28;20086;-70
2022/03/06 10:52:25;;;;;;;5.32;2.63;;;;;;;;;;5090181;28;20039;-70
2022/03/06 10:54:53;;;;;;;4.93;2.42;;;;;;;;;;5091789;28;20071;-70
2022/03/06 10:57:20;;;;;;;4.57;2.15;;;;;;;;;;5091111;28;20039;-70
2022/03/06 10:59:46;;;;;;;2.50;2.08;;;;;;;;;;5089993;28;20055;-70
2022/03/06 11:02:12;;;;;;;3.80;2.10;;;;;;;;;;5091751;28;20044;-70
2022/03/06 11:04:38;;;;;;;4.88;2.30;;;;;;;;;;5089712;28;20123;-70
2022/03/06 11:07:05;;;;;;;3.03;2.30;;;;;;;;;;5089837;28;20090;-70
2022/03/06 11:09:31;;;;;;;5.65;2.33;;;;;;;;;;5091435;28;20036;-70
2022/03/06 11:11:58;;;;;;;4.13;2.40;;;;;;;;;;5091656;28;20036;-70
2022/03/06 11:14:24;;;;;;;4.60;2.40;;;;;;;;;;5091047;28;20038;-70
2022/03/06 11:16:50;;;;;;;4.65;2.28;;;;;;;;;;5091576;28;20486;-70
2022/03/06 11:19:16;;;;;;;3.40;2.50;;;;;;;;;;5090184;28;20051;-70
2022/03/06 11:21:44;;;;;;;3.35;2.50;;;;;;;;;;5090815;28;20077;-70
2022/03/06 11:24:20;;;;;;;3.45;2.10;;;;;;;;;;5091366;28;20044;-70
2022/03/06 11:27:08;;;;;;;3.75;2.40;;;;;;;;;;5089825;28;20040;-70
2022/03/06 11:30:00;;;;;;;5.05;2.40;;;;;;;;;;5089800;28;20056;-70
2022/03/06 11:32:27;;;;;;;3.88;2.40;;;;;;;;;;5090270;28;20048;-70
2022/03/06 11:34:59;;;;;;;5.40;2.45;;;;;;;;;;5090413;28;20759;-70
2022/03/06 11:37:28;;;;;;;3.53;2.30;;;;;;;;;;5091534;28;20063;-70
2022/03/06 11:39:54;;;;;;;3.13;2.30;;;;;;;;;;5089706;28;20674;-70
2022/03/06 11:42:43;;;;;;;6.25;2.88;;;;;;;;;;5090894;28;20051;-70
2022/03/06 11:45:09;;;;;;;5.00;2.58;;;;;;;;;;5067139;28;20044;-70
2022/03/06 11:47:35;;;;;;;4.03;2.47;;;;;;;;;;5077853;28;20121;-70
2022/03/06 11:50:02;;;;;;;3.60;2.38;;;;;;;;;;5074420;28;20074;-70
2022/03/06 11:52:32;;;;;;;6.40;2.70;;;;;;;;;;5088002;28;20115;-70
2022/03/06 11:54:58;;;;;;;7.18;2.67;;;;;;;;;;5095225;28;20044;-70
2022/03/06 11:57:44;;;;;;;5.15;3.03;;;;;;;;;;5094482;28;20069;-70
2022/03/06 12:00:17;;;;;;;4.93;2.33;;;;;;;;;;5095115;28;20043;-70
2022/03/06 12:02:50;;;;;;;4.05;2.20;;;;;;;;;;5093587;28;20048;-70
2022/03/06 12:05:17;;;;;;;5.60;2.50;;;;;;;;;;5094559;28;20035;-70
2022/03/06 12:07:47;;;;;;;5.30;2.88;;;;;;;;;;5093476;28;20086;-70
2022/03/06 12:10:14;;;;;;;5.10;2.55;;;;;;;;;;5094880;28;20093;-70
2022/03/06 12:12:41;;;;;;;5.28;2.60;;;;;;;;;;5092938;28;20035;-70
2022/03/06 12:15:14;;;;;;;6.60;2.50;;;;;;;;;;5093192;28;20079;-70
2022/03/06 12:17:41;;;;;;;5.38;2.35;;;;;;;;;;5093588;28;20048;-69
2022/03/06 12:20:12;;;;;;;5.45;2.58;;;;;;;;;;5093941;28;20481;-70
2022/03/06 12:22:44;;;;;;;3.05;2.50;;;;;;;;;;5093420;28;20044;-70
2022/03/06 12:25:14;;;;;;;3.95;2.45;;;;;;;;;;5094710;28;20044;-70
2022/03/06 12:28:03;;;;;;;5.65;2.83;;;;;;;;;;5092509;28;20048;-70
2022/03/06 12:30:30;;;;;;;4.85;2.75;;;;;;;;;;5093036;28;20127;-70
2022/03/06 12:32:57;;;;;;;4.70;2.55;;;;;;;;;;5094637;28;20063;-70
2022/03/06 12:35:25;;;;;;;3.10;2.13;;;;;;;;;;5092599;28;20701;-70
2022/03/06 12:37:52;;;;;;;6.00;2.63;;;;;;;;;;5092955;28;20052;-70
2022/03/06 12:40:29;;;;;;;3.65;2.47;;;;;;;;;;5094145;28;20043;-70
2022/03/06 12:43:02;;;;;;;7.15;2.88;;;;;;;;;;5092246;28;20072;-70
2022/03/06 12:45:29;;;;;;;4.68;2.83;;;;;;;;;;5092913;28;20040;-70
2022/03/06 12:47:55;;;;;;;4.15;2.53;;;;;;;;;;5093878;28;20063;-70
2022/03/06 12:50:22;;;;;;;5.35;2.35;;;;;;;;;;5093646;28;20108;-70
2022/03/06 12:52:49;;;;;;;3.75;1.95;;;;;;;;;;5094043;28;20048;-70
2022/03/06 12:55:18;;;;;;;6.20;2.95;;;;;;;;;;5093937;28;20093;-71
2022/03/06 12:57:50;;;;;;;5.47;2.45;;;;;;;;;;5092039;28;20048;-70
2022/03/06 13:00:23;;;;;;;3.03;2.20;;;;;;;;;;5092729;28;20172;-70
2022/03/06 13:02:50;;;;;;;3.80;2.60;;;;;;;;;;5093930;28;20386;-70
2022/03/06 13:05:16;;;;;;;4.82;2.38;;;;;;;;;;5091491;28;20121;-70
2022/03/06 13:07:42;;;;;;;4.30;3.15;;;;;;;;;;5093517;28;20473;-71
2022/03/06 13:10:09;;;;;;;4.55;2.30;;;;;;;;;;5092628;28;20485;-70
2022/03/06 13:12:36;;;;;;;5.60;3.67;;;;;;;;;;5093105;28;20140;-70
2022/03/06 13:15:03;;;;;;;7.68;2.90;;;;;;;;;;5093543;28;20079;-70
2022/03/06 13:17:30;;;;;;;4.57;2.70;;;;;;;;;;5092341;28;20052;-70
2022/03/06 13:19:56;;;;;;;3.92;2.20;;;;;;;;;;5091424;28;20044;-70
2022/03/06 13:22:25;;;;;;;4.32;2.40;;;;;;;;;;5093387;28;20470;-70
2022/03/06 13:24:56;;;;;;;7.85;4.88;;;;;;;;;;5091995;28;20040;-70
2022/03/06 13:27:25;;;;;;;9.30;8.05;;;;;;;;;;5092337;28;20071;-70
2022/03/06 13:30:15;;;;;;;5.95;4.43;;;;;;;;;;5093505;28;20051;-70
2022/03/06 13:32:54;;;;;;;6.13;2.92;;;;;;;;;;5091857;28;20135;-70
2022/03/06 13:35:37;;;;;;;7.18;4.30;;;;;;;;;;5091713;28;20052;-70
2022/03/06 13:38:03;;;;;;;6.60;5.00;;;;;;;;;;5091894;28;20048;-70
2022/03/06 13:40:31;;;;;;;6.20;3.65;;;;;;;;;;5092640;28;20093;-70
2022/03/06 13:42:57;;;;;;;11.60;8.82;;;;;;;;;;5091832;28;20146;-70
2022/03/06 13:45:23;;;;;;;7.75;4.60;;;;;;;;;;5092881;28;20050;-70
2022/03/06 13:47:50;;;;;;;5.20;3.20;;;;;;;;;;5090687;28;20071;-70
2022/03/06 13:50:20;;;;;;;12.05;8.23;;;;;;;;;;5093169;28;20059;-70
2022/03/06 13:52:47;;;;;;;8.75;5.63;;;;;;;;;;5092982;28;20036;-70
2022/03/06 13:55:13;;;;;;;5.65;3.30;;;;;;;;;;5090529;28;20255;-70
2022/03/06 13:57:41;;;;;;;5.15;2.80;;;;;;;;;;5091384;28;20040;-71
2022/03/06 14:00:40;;;;;;;4.50;2.70;;;;;;;;;;5092885;28;20517;-71
2022/03/06 14:03:07;;;;;;;4.70;3.00;;;;;;;;;;5078964;28;20063;-71
2022/03/06 14:05:37;;;;;;;7.45;2.92;;;;;;;;;;5058103;28;20050;-71
2022/03/06 14:08:19;;;;;;;4.78;3.00;;;;;;;;;;5091232;28;20052;-71
2022/03/06 14:10:46;;;;;;;4.67;2.80;;;;;;;;;;5092049;28;20040;-71
2022/03/06 14:13:32;;;;;;;5.63;3.20;;;;;;;;;;5091193;28;20048;-71
2022/03/06 14:16:04;;;;;;;7.97;4.03;;;;;;;;;;5090935;28;20055;-71
2022/03/06 14:18:49;;;;;;;7.68;2.70;;;;;;;;;;5091997;28;20133;-71
2022/03/06 14:21:42;;;;;;;6.32;2.95;;;;;;;;;;5092226;28;20086;-71
2022/03/06 14:24:09;;;;;;;5.75;2.78;;;;;;;;;;5091317;28;20048;-71
2022/03/06 14:26:36;;;;;;;4.03;2.38;;;;;;;;;;5090356;28;20391;-71
2022/03/06 14:29:04;;;;;;;5.93;2.65;;;;;;;;;;5072297;28;20055;-71
2022/03/06 14:31:30;;;;;;;3.95;2.30;;;;;;;;;;5072060;28;20094;-71
2022/03/06 14:33:57;;;;;;;4.35;2.88;;;;;;;;;;5088977;28;20105;-70
2022/03/06 14:36:23;;;;;;;4.75;2.85;;;;;;;;;;5089143;28;20040;-70
2022/03/06 14:38:50;;;;;;;4.57;2.78;;;;;;;;;;5089366;28;20410;-70